地図

経路データ

SID SEASON NUMBER BASIN SUBBASIN NAME ISO_TIME NATURE LAT LON WMO_WIND WMO_PRES WMO_AGENCY TRACK_TYPE DIST2LAND LANDFALL IFLAG USA_AGENCY USA_ATCF_ID USA_LAT USA_LON USA_RECORD USA_STATUS USA_WIND USA_PRES USA_SSHS USA_R34_NE USA_R34_SE USA_R34_SW USA_R34_NW USA_R50_NE USA_R50_SE USA_R50_SW USA_R50_NW USA_R64_NE USA_R64_SE USA_R64_SW USA_R64_NW USA_POCI USA_ROCI USA_RMW USA_EYE TOKYO_LAT TOKYO_LON TOKYO_GRADE TOKYO_WIND TOKYO_PRES TOKYO_R50_DIR TOKYO_R50_LONG TOKYO_R50_SHORT TOKYO_R30_DIR TOKYO_R30_LONG TOKYO_R30_SHORT TOKYO_LAND CMA_LAT CMA_LON CMA_CAT CMA_WIND CMA_PRES HKO_LAT HKO_LON HKO_CAT HKO_WIND HKO_PRES NEWDELHI_LAT NEWDELHI_LON NEWDELHI_GRADE NEWDELHI_WIND NEWDELHI_PRES NEWDELHI_CI NEWDELHI_DP NEWDELHI_POCI REUNION_LAT REUNION_LON REUNION_TYPE REUNION_WIND REUNION_PRES REUNION_TNUM REUNION_CI REUNION_RMW REUNION_R34_NE REUNION_R34_SE REUNION_R34_SW REUNION_R34_NW REUNION_R50_NE REUNION_R50_SE REUNION_R50_SW REUNION_R50_NW REUNION_R64_NE REUNION_R64_SE REUNION_R64_SW REUNION_R64_NW BOM_LAT BOM_LON BOM_TYPE BOM_WIND BOM_PRES BOM_TNUM BOM_CI BOM_RMW BOM_R34_NE BOM_R34_SE BOM_R34_SW BOM_R34_NW BOM_R50_NE BOM_R50_SE BOM_R50_SW BOM_R50_NW BOM_R64_NE BOM_R64_SE BOM_R64_SW BOM_R64_NW BOM_ROCI BOM_POCI BOM_EYE BOM_POS_METHOD BOM_PRES_METHOD NADI_LAT NADI_LON NADI_CAT NADI_WIND NADI_PRES WELLINGTON_LAT WELLINGTON_LON WELLINGTON_WIND WELLINGTON_PRES DS824_LAT DS824_LON DS824_STAGE DS824_WIND DS824_PRES TD9636_LAT TD9636_LON TD9636_STAGE TD9636_WIND TD9636_PRES TD9635_LAT TD9635_LON TD9635_WIND TD9635_PRES TD9635_ROCI NEUMANN_LAT NEUMANN_LON NEUMANN_CLASS NEUMANN_WIND NEUMANN_PRES MLC_LAT MLC_LON MLC_CLASS MLC_WIND MLC_PRES USA_GUST BOM_GUST BOM_GUST_PER REUNION_GUST REUNION_GUST_PER USA_SEAHGT USA_SEARAD_NE USA_SEARAD_SE USA_SEARAD_SW USA_SEARAD_NW STORM_SPEED STORM_DIR
1943159N16123 1943 33 WP MM NOT_NAMED 1943-06-07 12:00:00 NR 15.7000 122.700 main 77 15 __________O___ -1 15.7000 122.700 2 17 339
1943159N16123 1943 33 WP MM NOT_NAMED 1943-06-07 15:00:00 NR 16.5050 122.388 main 15 0 __________P___ -1 16.5050 122.388 2 17 339
1943159N16123 1943 33 WP MM NOT_NAMED 1943-06-07 18:00:00 NR 17.2680 122.070 main 0 0 __________P___ -1 17.2680 122.070 2 16 337
1943159N16123 1943 33 WP MM NOT_NAMED 1943-06-07 21:00:00 NR 17.9469 121.742 main 0 0 __________P___ -1 17.9469 121.742 2 14 333
1943159N16123 1943 33 WP MM NOT_NAMED 1943-06-08 00:00:00 NR 18.5000 121.400 main 0 0 __________O___ -1 18.5000 121.400 2 12 325
1943159N16123 1943 33 WP MM NOT_NAMED 1943-06-08 03:00:00 NR 18.8994 121.042 main 35 35 __________P___ -1 18.8994 121.042 2 10 314
1943159N16123 1943 33 WP MM NOT_NAMED 1943-06-08 06:00:00 NR 19.1721 120.671 main 67 67 __________P___ -1 19.1721 120.671 2 8 303
1943159N16123 1943 33 WP MM NOT_NAMED 1943-06-08 09:00:00 NR 19.3588 120.290 main 103 103 __________P___ -1 19.3588 120.290 2 8 294
1943159N16123 1943 33 WP MM NOT_NAMED 1943-06-08 12:00:00 NR 19.5000 119.900 main 138 138 __________O___ -1 19.5000 119.900 2 8 293
1943159N16123 1943 33 WP MM NOT_NAMED 1943-06-08 15:00:00 NR 19.6729 119.507 main 183 183 __________P___ -1 19.6729 119.507 2 8 293
1943159N16123 1943 33 WP MM NOT_NAMED 1943-06-08 18:00:00 NR 19.8097 119.107 main 222 222 __________P___ -1 19.8097 119.107 2 8 288
1943159N16123 1943 33 WP MM NOT_NAMED 1943-06-08 21:00:00 NR 19.9167 118.704 main 260 260 __________P___ -1 19.9167 118.704 2 8 284
1943159N16123 1943 33 WP MM NOT_NAMED 1943-06-09 00:00:00 NR 20.0000 118.300 main 300 300 __________O___ -1 20.0000 118.300 7 8 282
1943159N16123 1943 33 WP MM NOT_NAMED 1943-06-09 03:00:00 NR 20.0755 117.888 main 341 329 __________P___ -1 20.0755 117.888 7 8 280
1943159N16123 1943 33 WP MM NOT_NAMED 1943-06-09 06:00:00 NR 20.1299 117.477 main 329 308 __________P___ -1 20.1299 117.477 7 8 277
1943159N16123 1943 33 WP MM NOT_NAMED 1943-06-09 09:00:00 NR 20.1693 117.078 main 308 294 __________P___ -1 20.1693 117.078 7 7 275
1943159N16123 1943 33 WP MM NOT_NAMED 1943-06-09 12:00:00 NR 20.2000 116.700 main 294 284 __________O___ -1 20.2000 116.700 7 7 275
1943159N16123 1943 33 WP MM NOT_NAMED 1943-06-09 15:00:00 NR 20.2282 116.301 main 284 277 __________P___ -1 20.2282 116.301 7 7 274
1943159N16123 1943 33 WP MM NOT_NAMED 1943-06-09 18:00:00 NR 20.2502 115.930 main 266 256 __________P___ -1 20.2502 115.930 7 6 274
1943159N16123 1943 33 WP MM NOT_NAMED 1943-06-09 21:00:00 NR 20.2720 115.619 main 256 250 __________P___ -1 20.2720 115.619 7 5 276
1943159N16123 1943 33 WP MM NOT_NAMED 1943-06-10 00:00:00 NR 20.3000 115.400 main 250 246 __________O___ -1 20.3000 115.400 7 3 284
1943159N16123 1943 33 WP MM NOT_NAMED 1943-06-10 03:00:00 NR 20.3465 115.298 main 246 236 __________P___ -1 20.3465 115.298 7 1 314
1943159N16123 1943 33 WP MM NOT_NAMED 1943-06-10 06:00:00 NR 20.3996 115.287 main 236 226 __________P___ -1 20.3996 115.287 7 1 18
1943159N16123 1943 33 WP MM NOT_NAMED 1943-06-10 09:00:00 NR 20.4529 115.333 main 226 226 __________P___ -1 20.4529 115.333 7 1 45
1943159N16123 1943 33 WP MM NOT_NAMED 1943-06-10 12:00:00 NR 20.5000 115.400 main 229 229 __________O___ -1 20.5000 115.400 7 1 45
1943159N16123 1943 33 WP MM NOT_NAMED 1943-06-10 15:00:00 NR 20.5362 115.432 main 229 221 __________P___ -1 20.5362 115.432 7 1 48
1943159N16123 1943 33 WP MM NOT_NAMED 1943-06-10 18:00:00 NR 20.5650 115.477 main 221 221 __________P___ -1 20.5650 115.477 7 1 63
1943159N16123 1943 33 WP MM NOT_NAMED 1943-06-10 21:00:00 NR 20.5862 115.535 main 221 221 __________P___ -1 20.5862 115.535 7 1 73
1943159N16123 1943 33 WP MM NOT_NAMED 1943-06-11 00:00:00 NR 20.6000 115.600 main 224 224 __________O___ -1 20.6000 115.600 7 1 80
1943159N16123 1943 33 WP MM NOT_NAMED 1943-06-11 03:00:00 NR 20.6072 115.668 main 227 227 __________P___ -1 20.6072 115.668 7 1 87
1943159N16123 1943 33 WP MM NOT_NAMED 1943-06-11 06:00:00 NR 20.6075 115.743 main 227 227 __________P___ -1 20.6075 115.743 7 1 91
1943159N16123 1943 33 WP MM NOT_NAMED 1943-06-11 09:00:00 NR 20.6041 115.821 main 231 231 __________P___ -1 20.6041 115.821 7 1 93
1943159N16123 1943 33 WP MM NOT_NAMED 1943-06-11 12:00:00 NR 20.6000 115.900 main 235 235 __________O___ -1 20.6000 115.900 7 1 133
1943159N16123 1943 33 WP MM NOT_NAMED 1943-06-11 15:00:00 NR 20.5661 115.858 main 235 231 __________P___ -1 20.5661 115.858 7 1 218
1943159N16123 1943 33 WP MM NOT_NAMED 1943-06-11 18:00:00 NR 20.5375 115.834 main 242 242 __________P___ -1 20.5375 115.834 7 1 118
1943159N16123 1943 33 WP MM NOT_NAMED 1943-06-11 21:00:00 NR 20.5402 115.918 main 246 235 __________P___ -1 20.5402 115.918 7 3 80
1943159N16123 1943 33 WP MM NOT_NAMED 1943-06-12 00:00:00 NR 20.6000 116.200 main 238 235 __________O___ -1 20.6000 116.200 2 9 78
1943159N16123 1943 33 WP MM NOT_NAMED 1943-06-12 03:00:00 NR 20.7127 116.816 main 245 240 __________P___ -1 20.7127 116.816 2 14 78
1943159N16123 1943 33 WP MM NOT_NAMED 1943-06-12 06:00:00 NR 20.8839 117.628 main 250 242 __________P___ -1 20.8839 117.628 2 16 76
1943159N16123 1943 33 WP MM NOT_NAMED 1943-06-12 09:00:00 NR 21.1127 118.526 main 242 145 __________P___ -1 21.1127 118.526 2 17 73
1943159N16123 1943 33 WP MM NOT_NAMED 1943-06-12 12:00:00 NR 21.4000 119.400 main 145 65 __________O___ -1 21.4000 119.400 2 17 67
1943159N16123 1943 33 WP MM NOT_NAMED 1943-06-12 15:00:00 NR 21.7457 120.165 main 56 0 __________P___ -1 21.7457 120.165 2 15 61
1943159N16123 1943 33 WP MM NOT_NAMED 1943-06-12 18:00:00 NR 22.1382 120.830 main 0 0 __________P___ -1 22.1382 120.830 2 14 55
1943159N16123 1943 33 WP MM NOT_NAMED 1943-06-12 21:00:00 NR 22.5617 121.430 main 38 38 __________P___ -1 22.5617 121.430 2 14 51
1943159N16123 1943 33 WP MM NOT_NAMED 1943-06-13 00:00:00 NR 23.0000 122.000 main 62 __________O___ -1 23.0000 122.000 2 14 50

デジタル台風データ・検索

IBTrACS Databaseについて

本データベースは、米国NOAAが公開する1842年以降の世界の熱帯低気圧のベストトラックデータアーカイブInternational Best Track Archive for Climate Stewardship (IBTrACS)を、ウェブで閲覧しやすい形式に変換したものです。

最終更新日:2021-10-21